createdAt,value
2022-08-17T00:01:04.991Z,23.2
2022-08-17T00:07:04.901Z,23.2
2022-08-17T00:13:04.890Z,23.2
2022-08-17T00:19:08.358Z,23.3
2022-08-17T00:25:04.925Z,23.2
2022-08-17T00:31:04.880Z,23.3
2022-08-17T00:37:04.922Z,23.3
2022-08-17T00:43:04.921Z,23.2
2022-08-17T00:49:04.930Z,23.2
2022-08-17T00:55:04.892Z,23.1
2022-08-17T01:01:05.008Z,22.9
2022-08-17T01:07:04.938Z,22.7
2022-08-17T01:13:04.916Z,22.4
2022-08-17T01:19:04.937Z,22.5
2022-08-17T01:25:04.921Z,22.5
2022-08-17T01:31:04.912Z,22.4
2022-08-17T01:37:04.925Z,22.4
2022-08-17T01:43:04.915Z,22.3
2022-08-17T01:49:04.924Z,22.1
2022-08-17T01:55:04.916Z,22.1
2022-08-17T02:01:04.970Z,22.2
2022-08-17T02:07:04.927Z,22
2022-08-17T02:13:04.943Z,21.8
2022-08-17T02:19:04.937Z,21.7
2022-08-17T02:25:04.950Z,21.6
2022-08-17T02:31:04.934Z,21.3
2022-08-17T02:37:04.921Z,21.3
2022-08-17T02:43:04.940Z,21.3
2022-08-17T02:49:04.929Z,21.2
2022-08-17T02:55:04.933Z,21.3
2022-08-17T03:01:04.964Z,21
2022-08-17T03:07:04.960Z,20.9
2022-08-17T03:13:04.926Z,20.7
2022-08-17T03:19:04.942Z,20.8
2022-08-17T03:25:04.945Z,20.6
2022-08-17T03:31:04.942Z,20.5
2022-08-17T03:37:04.935Z,20.5
2022-08-17T03:43:04.953Z,20.4
2022-08-17T03:49:04.927Z,20.5
2022-08-17T03:55:04.954Z,20.6
2022-08-17T04:01:05.033Z,20.7
2022-08-17T04:07:04.950Z,20.8
2022-08-17T04:13:04.950Z,20.8
2022-08-17T04:19:04.968Z,20.9
2022-08-17T04:25:04.967Z,20.7
2022-08-17T04:31:04.957Z,20.7
2022-08-17T04:37:05.005Z,20.8
2022-08-17T04:43:04.953Z,20.8
2022-08-17T04:49:04.963Z,20.8
2022-08-17T04:55:04.980Z,21
2022-08-17T05:01:05.028Z,21
2022-08-17T05:07:05.015Z,21
2022-08-17T05:13:04.973Z,21.1
2022-08-17T05:19:04.975Z,21.2
2022-08-17T05:25:04.954Z,21.4
2022-08-17T05:31:04.975Z,21.4
2022-08-17T05:37:05.019Z,21.6
2022-08-17T05:43:04.984Z,21.7
2022-08-17T05:49:04.979Z,21.6
2022-08-17T05:55:05.007Z,21.7
2022-08-17T06:01:05.023Z,21.7
2022-08-17T06:07:05.009Z,21.7
2022-08-17T06:13:04.992Z,21.7
2022-08-17T06:19:04.976Z,21.9
2022-08-17T06:25:04.985Z,22
2022-08-17T06:31:04.979Z,22.2
2022-08-17T06:37:05.102Z,22.6
2022-08-17T06:43:07.106Z,22.7
2022-08-17T06:49:05.063Z,22.8
2022-08-17T06:55:04.985Z,23.3
2022-08-17T07:01:05.076Z,23.6
2022-08-17T07:07:05.047Z,24.9
2022-08-17T07:13:05.010Z,25.9
2022-08-17T07:19:05.013Z,26.5
2022-08-17T07:25:04.995Z,25.9
2022-08-17T07:31:05.018Z,25.6
2022-08-17T07:37:05.052Z,25.3
2022-08-17T07:43:05.144Z,26.2
2022-08-17T07:49:05.014Z,26.3
2022-08-17T07:55:05.035Z,27.2
2022-08-17T08:01:05.009Z,28
2022-08-17T08:07:05.021Z,27.2
2022-08-17T08:13:05.012Z,27.8
2022-08-17T08:19:05.016Z,27.4
2022-08-17T08:25:05.022Z,26.5
2022-08-17T08:31:05.138Z,26.2
2022-08-17T08:37:16.328Z,25.8
2022-08-17T08:43:05.053Z,25.5
2022-08-17T08:49:12.249Z,25.3
2022-08-17T08:55:05.048Z,25.1
2022-08-17T09:01:05.046Z,25.1
2022-08-17T09:07:05.034Z,24.6
2022-08-17T09:13:09.900Z,24
2022-08-17T09:19:05.521Z,24.1
2022-08-17T09:25:05.071Z,24
2022-08-17T09:31:05.074Z,24
2022-08-17T09:37:05.048Z,24.1
2022-08-17T09:43:05.044Z,24.2
2022-08-17T09:49:05.052Z,24.1
2022-08-17T09:55:05.040Z,24.4
2022-08-17T10:01:05.117Z,25.1
2022-08-17T10:07:05.036Z,26.1
2022-08-17T10:13:05.051Z,27.7
2022-08-17T10:19:05.115Z,29.8
2022-08-17T10:25:22.763Z,31.2
2022-08-17T10:31:33.043Z,31.2
2022-08-17T10:37:05.060Z,29.1
2022-08-17T10:43:05.068Z,28.4
2022-08-17T10:49:05.064Z,32.3
2022-08-17T10:55:05.077Z,31.1
2022-08-17T11:01:05.148Z,29.9
2022-08-17T11:07:05.087Z,30.2
2022-08-17T11:13:05.709Z,30.4
2022-08-17T11:19:05.085Z,29.2
2022-08-17T11:25:05.068Z,28
2022-08-17T11:31:05.098Z,27.5
2022-08-17T11:37:05.091Z,27
2022-08-17T11:43:05.074Z,27.9
2022-08-17T11:49:05.115Z,29.4
2022-08-17T11:55:31.791Z,29
2022-08-17T12:01:05.991Z,30.5
2022-08-17T12:07:05.127Z,29.8
2022-08-17T12:13:05.080Z,30.7
2022-08-17T12:19:05.128Z,29.5
2022-08-17T12:25:05.113Z,29.7
2022-08-17T12:31:05.126Z,30.1
2022-08-17T12:37:05.098Z,30.3
2022-08-17T12:43:05.104Z,30.1
2022-08-17T12:49:05.122Z,30
2022-08-17T12:55:05.093Z,29.7
2022-08-17T13:01:05.120Z,29.7
2022-08-17T13:07:05.112Z,30
2022-08-17T13:13:05.153Z,29.5
2022-08-17T13:19:05.213Z,30
2022-08-17T13:25:05.150Z,29.6
2022-08-17T13:31:05.118Z,29.8
2022-08-17T13:37:05.104Z,30.7
2022-08-17T13:43:05.116Z,31.2
2022-08-17T13:49:05.199Z,30.8
2022-08-17T13:55:05.193Z,30.5
2022-08-17T14:01:05.239Z,29.4
2022-08-17T14:07:05.158Z,29.7
2022-08-17T14:13:05.156Z,30.1
2022-08-17T14:19:05.128Z,29.1
2022-08-17T14:25:05.160Z,28.9
2022-08-17T14:31:05.180Z,28.8
2022-08-17T14:37:05.179Z,28.8
2022-08-17T14:43:05.168Z,29.2
2022-08-17T14:49:05.171Z,29.2
2022-08-17T14:55:05.188Z,28.9
2022-08-17T15:01:05.246Z,29.3
2022-08-17T15:07:05.165Z,29.3
2022-08-17T15:13:05.173Z,29.2
2022-08-17T15:19:05.173Z,28.4
2022-08-17T15:25:05.172Z,27.4
2022-08-17T15:31:05.185Z,27.1
2022-08-17T15:37:05.177Z,27.2
2022-08-17T15:43:05.185Z,27.3
2022-08-17T15:49:05.191Z,27.3
2022-08-17T15:55:05.199Z,27.2
2022-08-17T16:01:17.029Z,27.1
2022-08-17T16:07:05.206Z,26.7
2022-08-17T16:13:05.185Z,26.8
2022-08-17T16:19:05.193Z,26.8
2022-08-17T16:25:05.197Z,26.5
2022-08-17T16:31:05.217Z,26.6
2022-08-17T16:37:05.185Z,26.7
2022-08-17T16:43:05.204Z,26.8
2022-08-17T16:49:05.182Z,26.9
2022-08-17T16:55:05.207Z,26.8
2022-08-17T17:01:05.280Z,26.5
2022-08-17T17:07:05.205Z,26.4
2022-08-17T17:13:05.202Z,26.4
2022-08-17T17:19:05.194Z,26.2
2022-08-17T17:25:05.213Z,26.3
2022-08-17T17:31:05.240Z,26.4
2022-08-17T17:37:05.218Z,26.2
2022-08-17T17:43:20.835Z,25.9
2022-08-17T17:49:05.221Z,25.6
2022-08-17T17:55:05.207Z,25.4
2022-08-17T18:01:05.243Z,25.1
2022-08-17T18:07:05.236Z,25.2
2022-08-17T18:13:05.202Z,25
2022-08-17T18:19:06.160Z,25
2022-08-17T18:25:05.219Z,24.8
2022-08-17T18:31:05.214Z,24.6
2022-08-17T18:37:05.382Z,24.3
2022-08-17T18:43:05.237Z,24.1
2022-08-17T18:49:05.227Z,24.1
2022-08-17T18:55:05.243Z,23.7
2022-08-17T19:01:05.238Z,23.5
2022-08-17T19:07:05.243Z,23.5
2022-08-17T19:13:12.202Z,23.2
2022-08-17T19:19:05.257Z,23.1
2022-08-17T19:25:05.249Z,22.8
2022-08-17T19:31:05.263Z,22.9
2022-08-17T19:37:05.265Z,22.9
2022-08-17T19:43:05.249Z,22.6
2022-08-17T19:49:05.330Z,22.5
2022-08-17T19:55:05.239Z,22.4
2022-08-17T20:01:05.323Z,22.4
2022-08-17T20:07:05.234Z,22.5
2022-08-17T20:13:05.247Z,22.6
2022-08-17T20:19:05.263Z,22.4
2022-08-17T20:25:05.251Z,22.2
2022-08-17T20:31:05.259Z,22.3
2022-08-17T20:37:05.281Z,22.3
2022-08-17T20:43:05.261Z,22.4
2022-08-17T20:49:05.255Z,22.3
2022-08-17T20:55:05.267Z,22.4
2022-08-17T21:01:05.319Z,22.2
2022-08-17T21:07:05.269Z,21.9
2022-08-17T21:13:05.298Z,21.9
2022-08-17T21:19:06.925Z,22
2022-08-17T21:25:05.257Z,21.9
2022-08-17T21:31:05.290Z,21.8
2022-08-17T21:37:05.300Z,22.2
2022-08-17T21:43:05.264Z,22.2
2022-08-17T21:49:13.339Z,21.8
2022-08-17T21:55:05.310Z,21.8
2022-08-17T22:01:05.364Z,21.9
2022-08-17T22:07:05.282Z,21.8
2022-08-17T22:13:05.285Z,21.7
2022-08-17T22:19:05.282Z,21.6
2022-08-17T22:25:05.335Z,21.4
2022-08-17T22:31:05.363Z,21.4
2022-08-17T22:37:05.346Z,21.5
2022-08-17T22:43:05.279Z,21.5
2022-08-17T22:49:05.307Z,21.5
2022-08-17T22:55:09.222Z,21.3
2022-08-17T23:01:05.305Z,21.2
2022-08-17T23:07:05.312Z,21.3
2022-08-17T23:13:05.319Z,21.2
2022-08-17T23:19:06.484Z,21.1
2022-08-17T23:25:05.319Z,21.3
2022-08-17T23:31:05.298Z,21.2
2022-08-17T23:37:05.316Z,21.1
2022-08-17T23:43:05.944Z,20.9
2022-08-17T23:49:05.332Z,20.9
2022-08-17T23:55:05.317Z,20.8
